sensor_id;sensor_type;location;lat;lon;timestamp;pressure;altitude;pressure_sealevel;temperature;humidity
66398;BME280;54877;51.504;3.894;2023-02-24T00:01:12;101758.31;;;10.06;55.16
66398;BME280;54877;51.504;3.894;2023-02-24T00:03:42;101750.47;;;10.03;55.32
66398;BME280;54877;51.504;3.894;2023-02-24T00:06:09;101749.50;;;10.05;55.26
66398;BME280;54877;51.504;3.894;2023-02-24T00:08:38;101750.34;;;10.08;54.94
66398;BME280;54877;51.504;3.894;2023-02-24T00:11:06;101745.09;;;10.06;55.24
66398;BME280;54877;51.504;3.894;2023-02-24T00:13:33;101738.00;;;10.07;55.29
66398;BME280;54877;51.504;3.894;2023-02-24T00:16:03;101745.19;;;10.03;55.27
66398;BME280;54877;51.504;3.894;2023-02-24T00:18:29;101738.19;;;10.02;55.07
66398;BME280;54877;51.504;3.894;2023-02-24T00:21:00;101739.09;;;10.01;54.88
66398;BME280;54877;51.504;3.894;2023-02-24T00:23:35;101741.72;;;10.01;55.09
66398;BME280;54877;51.504;3.894;2023-02-24T00:26:02;101734.66;;;10.01;55.43
66398;BME280;54877;51.504;3.894;2023-02-24T00:28:30;101731.03;;;10.04;55.69
66398;BME280;54877;51.504;3.894;2023-02-24T00:31:00;101731.03;;;10.04;55.88
66398;BME280;54877;51.504;3.894;2023-02-24T00:33:27;101721.34;;;10.04;55.43
66398;BME280;54877;51.504;3.894;2023-02-24T00:35:52;101725.66;;;10.07;55.93
66398;BME280;54877;51.504;3.894;2023-02-24T00:38:19;101722.06;;;10.08;55.37
66398;BME280;54877;51.504;3.894;2023-02-24T00:40:44;101715.16;;;10.04;55.49
66398;BME280;54877;51.504;3.894;2023-02-24T00:43:10;101710.78;;;10.03;55.39
66398;BME280;54877;51.504;3.894;2023-02-24T00:45:36;101712.47;;;10.05;55.67
66398;BME280;54877;51.504;3.894;2023-02-24T00:48:03;101708.91;;;10.07;55.40
66398;BME280;54877;51.504;3.894;2023-02-24T00:50:29;101703.53;;;10.10;55.56
66398;BME280;54877;51.504;3.894;2023-02-24T00:52:55;101695.59;;;10.10;55.46
66398;BME280;54877;51.504;3.894;2023-02-24T00:55:20;101694.56;;;10.14;55.63
66398;BME280;54877;51.504;3.894;2023-02-24T00:57:47;101699.03;;;10.13;55.48
66398;BME280;54877;51.504;3.894;2023-02-24T01:00:16;101691.97;;;10.12;54.50
66398;BME280;54877;51.504;3.894;2023-02-24T01:02:43;101690.22;;;10.11;55.08
66398;BME280;54877;51.504;3.894;2023-02-24T01:05:10;101688.50;;;10.10;55.20
66398;BME280;54877;51.504;3.894;2023-02-24T01:07:36;101684.13;;;10.09;54.44
66398;BME280;54877;51.504;3.894;2023-02-24T01:10:02;101674.44;;;10.08;54.76
66398;BME280;54877;51.504;3.894;2023-02-24T01:12:32;101679.88;;;10.05;54.64
66398;BME280;54877;51.504;3.894;2023-02-24T01:15:13;101676.25;;;10.08;53.60
66398;BME280;54877;51.504;3.894;2023-02-24T01:17:40;101671.00;;;10.06;54.04
66398;BME280;54877;51.504;3.894;2023-02-24T01:20:06;101668.31;;;10.08;53.64
66398;BME280;54877;51.504;3.894;2023-02-24T01:22:43;101671.78;;;10.10;54.03
66398;BME280;54877;51.504;3.894;2023-02-24T01:25:20;101657.75;;;10.08;52.64
66398;BME280;54877;51.504;3.894;2023-02-24T01:27:46;101658.72;;;10.05;52.35
66398;BME280;54877;51.504;3.894;2023-02-24T01:30:12;101651.78;;;10.01;52.22
66398;BME280;54877;51.504;3.894;2023-02-24T01:32:39;101653.63;;;9.99;52.68
66398;BME280;54877;51.504;3.894;2023-02-24T01:35:08;101646.91;;;9.89;51.33
66398;BME280;54877;51.504;3.894;2023-02-24T01:37:36;101642.47;;;9.89;51.27
66398;BME280;54877;51.504;3.894;2023-02-24T01:40:02;101643.53;;;9.85;50.97
66398;BME280;54877;51.504;3.894;2023-02-24T01:42:36;101637.28;;;9.86;51.36
66398;BME280;54877;51.504;3.894;2023-02-24T01:45:06;101632.88;;;9.87;51.57
66398;BME280;54877;51.504;3.894;2023-02-24T01:47:37;101622.34;;;9.85;51.17
66398;BME280;54877;51.504;3.894;2023-02-24T01:50:03;101629.44;;;9.85;51.54
66398;BME280;54877;51.504;3.894;2023-02-24T01:52:30;101632.09;;;9.83;51.21
66398;BME280;54877;51.504;3.894;2023-02-24T01:55:02;101627.69;;;9.84;51.75
66398;BME280;54877;51.504;3.894;2023-02-24T01:57:33;101617.09;;;9.84;51.59
66398;BME280;54877;51.504;3.894;2023-02-24T02:00:03;101613.56;;;9.85;51.46
66398;BME280;54877;51.504;3.894;2023-02-24T02:02:54;101606.50;;;9.85;51.79
66398;BME280;54877;51.504;3.894;2023-02-24T02:05:24;101602.81;;;9.89;52.15
66398;BME280;54877;51.504;3.894;2023-02-24T02:07:50;101598.38;;;9.90;51.57
66398;BME280;54877;51.504;3.894;2023-02-24T02:10:16;101593.16;;;9.88;51.39
66398;BME280;54877;51.504;3.894;2023-02-24T02:12:42;101592.28;;;9.88;51.21
66398;BME280;54877;51.504;3.894;2023-02-24T02:15:13;101584.47;;;9.85;50.97
66398;BME280;54877;51.504;3.894;2023-02-24T02:20:39;101581.22;;;9.77;51.38
66398;BME280;54877;51.504;3.894;2023-02-24T02:37:08;101547.22;;;9.40;51.90
66398;BME280;54877;51.504;3.894;2023-02-24T02:42:56;101544.00;;;9.32;52.24
66398;BME280;54877;51.504;3.894;2023-02-24T02:48:23;101552.00;;;9.29;52.26
66398;BME280;54877;51.504;3.894;2023-02-24T02:51:00;101553.78;;;9.28;51.80
66398;BME280;54877;51.504;3.894;2023-02-24T02:53:34;101550.53;;;9.20;51.79
66398;BME280;54877;51.504;3.894;2023-02-24T02:56:06;101544.38;;;9.20;51.89
66398;BME280;54877;51.504;3.894;2023-02-24T02:58:38;101540.06;;;9.17;51.21
66398;BME280;54877;51.504;3.894;2023-02-24T03:01:06;101533.88;;;9.18;51.84
66398;BME280;54877;51.504;3.894;2023-02-24T03:03:37;101531.25;;;9.18;51.91
66398;BME280;54877;51.504;3.894;2023-02-24T03:06:23;101522.41;;;9.19;52.00
66398;BME280;54877;51.504;3.894;2023-02-24T03:11:17;101509.22;;;9.18;51.57
66398;BME280;54877;51.504;3.894;2023-02-24T03:13:44;101521.53;;;9.19;51.64
66398;BME280;54877;51.504;3.894;2023-02-24T03:16:14;101513.66;;;9.17;52.20
66398;BME280;54877;51.504;3.894;2023-02-24T03:18:48;101519.03;;;9.14;51.47
66398;BME280;54877;51.504;3.894;2023-02-24T03:21:26;101504.97;;;9.14;51.67
66398;BME280;54877;51.504;3.894;2023-02-24T03:23:57;101504.16;;;9.12;51.74
66398;BME280;54877;51.504;3.894;2023-02-24T03:27:09;101507.75;;;9.09;51.54
66398;BME280;54877;51.504;3.894;2023-02-24T03:29:18;101502.56;;;9.06;51.53
66398;BME280;54877;51.504;3.894;2023-02-24T03:32:20;101491.41;;;8.98;51.61
66398;BME280;54877;51.504;3.894;2023-02-24T03:34:54;101491.50;;;8.95;51.69
66398;BME280;54877;51.504;3.894;2023-02-24T03:37:21;101493.41;;;8.92;52.06
66398;BME280;54877;51.504;3.894;2023-02-24T03:39:52;101487.44;;;8.85;51.83
66398;BME280;54877;51.504;3.894;2023-02-24T03:42:19;101490.06;;;8.85;52.14
66398;BME280;54877;51.504;3.894;2023-02-24T03:44:46;101488.44;;;8.81;52.58
66398;BME280;54877;51.504;3.894;2023-02-24T03:47:13;101485.06;;;8.77;52.76
66398;BME280;54877;51.504;3.894;2023-02-24T03:49:40;101486.00;;;8.75;52.45
66398;BME280;54877;51.504;3.894;2023-02-24T03:57:53;101467.13;;;8.59;52.98
66398;BME280;54877;51.504;3.894;2023-02-24T04:00:44;101471.59;;;8.59;52.97
66398;BME280;54877;51.504;3.894;2023-02-24T04:03:27;101466.41;;;8.56;53.44
66398;BME280;54877;51.504;3.894;2023-02-24T04:08:36;101453.63;;;8.42;53.30
66398;BME280;54877;51.504;3.894;2023-02-24T04:11:09;101454.56;;;8.40;53.88
66398;BME280;54877;51.504;3.894;2023-02-24T04:13:45;101446.81;;;8.35;53.61
66398;BME280;54877;51.504;3.894;2023-02-24T04:16:18;101449.50;;;8.34;53.60
66398;BME280;54877;51.504;3.894;2023-02-24T04:18:53;101457.41;;;8.34;53.74
66398;BME280;54877;51.504;3.894;2023-02-24T04:21:23;101444.31;;;8.31;53.89
66398;BME280;54877;51.504;3.894;2023-02-24T04:23:54;101446.03;;;8.32;54.05
66398;BME280;54877;51.504;3.894;2023-02-24T04:26:21;101437.22;;;8.33;53.58
66398;BME280;54877;51.504;3.894;2023-02-24T04:28:49;101429.44;;;8.26;54.02
66398;BME280;54877;51.504;3.894;2023-02-24T04:31:15;101428.59;;;8.27;53.93
66398;BME280;54877;51.504;3.894;2023-02-24T04:33:44;101423.22;;;8.31;53.59
66398;BME280;54877;51.504;3.894;2023-02-24T04:36:17;101416.09;;;8.33;53.72
66398;BME280;54877;51.504;3.894;2023-02-24T04:38:44;101420.66;;;8.27;53.97
66398;BME280;54877;51.504;3.894;2023-02-24T04:41:10;101417.22;;;8.24;53.32
66398;BME280;54877;51.504;3.894;2023-02-24T04:43:41;101411.06;;;8.23;53.36
66398;BME280;54877;51.504;3.894;2023-02-24T04:46:07;101405.88;;;8.20;54.36
66398;BME280;54877;51.504;3.894;2023-02-24T04:48:33;101406.72;;;8.22;53.86
66398;BME280;54877;51.504;3.894;2023-02-24T04:50:59;101398.75;;;8.24;54.11
66398;BME280;54877;51.504;3.894;2023-02-24T04:53:26;101409.38;;;8.22;53.93
66398;BME280;54877;51.504;3.894;2023-02-24T04:55:52;101407.63;;;8.21;53.75
66398;BME280;54877;51.504;3.894;2023-02-24T04:58:20;101397.94;;;8.22;53.53
66398;BME280;54877;51.504;3.894;2023-02-24T05:00:51;101397.97;;;8.20;53.40
66398;BME280;54877;51.504;3.894;2023-02-24T05:03:17;101393.63;;;8.19;53.66
66398;BME280;54877;51.504;3.894;2023-02-24T05:06:02;101389.25;;;8.18;53.99
66398;BME280;54877;51.504;3.894;2023-02-24T05:08:30;101394.59;;;8.17;53.63
66398;BME280;54877;51.504;3.894;2023-02-24T05:10:56;101386.63;;;8.18;53.51
66398;BME280;54877;51.504;3.894;2023-02-24T05:13:26;101387.63;;;8.14;53.53
66398;BME280;54877;51.504;3.894;2023-02-24T05:15:56;101385.91;;;8.13;53.26
66398;BME280;54877;51.504;3.894;2023-02-24T05:18:23;101378.03;;;8.12;53.67
66398;BME280;54877;51.504;3.894;2023-02-24T05:20:50;101389.50;;;8.11;53.69
66398;BME280;54877;51.504;3.894;2023-02-24T05:23:40;101385.19;;;8.08;53.69
66398;BME280;54877;51.504;3.894;2023-02-24T05:26:12;101367.69;;;8.06;53.77
66398;BME280;54877;51.504;3.894;2023-02-24T05:28:41;101371.22;;;8.05;53.83
66398;BME280;54877;51.504;3.894;2023-02-24T05:31:11;101370.44;;;8.01;53.32
66398;BME280;54877;51.504;3.894;2023-02-24T05:33:39;101371.47;;;7.97;53.78
66398;BME280;54877;51.504;3.894;2023-02-24T05:36:08;101362.63;;;7.98;53.97
66398;BME280;54877;51.504;3.894;2023-02-24T05:38:41;101351.38;;;7.93;54.09
66398;BME280;54877;51.504;3.894;2023-02-24T05:41:11;101350.66;;;7.88;53.84
66398;BME280;54877;51.504;3.894;2023-02-24T05:43:42;101350.63;;;7.90;53.79
66398;BME280;54877;51.504;3.894;2023-02-24T05:46:16;101350.56;;;7.91;54.24
66398;BME280;54877;51.504;3.894;2023-02-24T05:48:43;101334.84;;;7.88;54.15
66398;BME280;54877;51.504;3.894;2023-02-24T05:51:10;101337.44;;;7.90;54.04
66398;BME280;54877;51.504;3.894;2023-02-24T05:53:37;101336.59;;;7.88;54.51
66398;BME280;54877;51.504;3.894;2023-02-24T05:56:06;101336.56;;;7.89;54.36
66398;BME280;54877;51.504;3.894;2023-02-24T05:58:32;101334.84;;;7.88;54.49
66398;BME280;54877;51.504;3.894;2023-02-24T06:00:58;101333.00;;;7.90;54.51
66398;BME280;54877;51.504;3.894;2023-02-24T06:03:30;101328.84;;;7.83;54.43
66398;BME280;54877;51.504;3.894;2023-02-24T06:05:59;101322.75;;;7.81;54.71
66398;BME280;54877;51.504;3.894;2023-02-24T06:08:33;101319.50;;;7.73;54.49
66398;BME280;54877;51.504;3.894;2023-02-24T06:11:07;101308.09;;;7.73;54.78
66398;BME280;54877;51.504;3.894;2023-02-24T06:13:34;101309.22;;;7.64;54.97
66398;BME280;54877;51.504;3.894;2023-02-24T06:16:00;101309.16;;;7.65;55.03
66398;BME280;54877;51.504;3.894;2023-02-24T06:18:25;101297.63;;;7.69;54.76
66398;BME280;54877;51.504;3.894;2023-02-24T06:20:50;101285.25;;;7.73;55.14
66398;BME280;54877;51.504;3.894;2023-02-24T06:23:17;101280.88;;;7.72;55.02
66398;BME280;54877;51.504;3.894;2023-02-24T06:25:43;101286.03;;;7.75;54.37
66398;BME280;54877;51.504;3.894;2023-02-24T06:28:09;101285.25;;;7.73;54.63
66398;BME280;54877;51.504;3.894;2023-02-24T06:30:34;101283.66;;;7.67;54.60
66398;BME280;54877;51.504;3.894;2023-02-24T06:33:01;101284.50;;;7.68;54.60
66398;BME280;54877;51.504;3.894;2023-02-24T06:35:29;101282.09;;;7.60;55.09
66398;BME280;54877;51.504;3.894;2023-02-24T06:37:56;101284.28;;;7.76;55.12
66398;BME280;54877;51.504;3.894;2023-02-24T06:40:22;101285.97;;;7.77;55.03
66398;BME280;54877;51.504;3.894;2023-02-24T06:42:49;101289.34;;;7.82;54.87
66398;BME280;54877;51.504;3.894;2023-02-24T06:45:19;101284.13;;;7.80;54.64
66398;BME280;54877;51.504;3.894;2023-02-24T06:47:45;101276.94;;;7.85;54.63
66398;BME280;54877;51.504;3.894;2023-02-24T06:50:13;101276.13;;;7.83;54.53
66398;BME280;54877;51.504;3.894;2023-02-24T06:52:39;101269.09;;;7.84;54.60
66398;BME280;54877;51.504;3.894;2023-02-24T06:55:04;101273.75;;;7.76;54.79
66398;BME280;54877;51.504;3.894;2023-02-24T06:57:48;101268.47;;;7.76;54.62
66398;BME280;54877;51.504;3.894;2023-02-24T07:00:14;101269.53;;;7.70;55.19
66398;BME280;54877;51.504;3.894;2023-02-24T07:02:44;101275.34;;;7.80;54.86
66398;BME280;54877;51.504;3.894;2023-02-24T07:05:09;101262.94;;;7.83;55.19
66398;BME280;54877;51.504;3.894;2023-02-24T07:07:38;101262.03;;;7.84;54.85
66398;BME280;54877;51.504;3.894;2023-02-24T07:10:10;101256.66;;;7.87;55.00
66398;BME280;54877;51.504;3.894;2023-02-24T07:12:37;101251.34;;;7.89;54.97
66398;BME280;54877;51.504;3.894;2023-02-24T07:15:02;101260.03;;;7.92;55.21
66398;BME280;54877;51.504;3.894;2023-02-24T07:17:29;101256.44;;;7.93;54.85
66398;BME280;54877;51.504;3.894;2023-02-24T07:19:54;101256.44;;;7.95;55.20
66398;BME280;54877;51.504;3.894;2023-02-24T07:22:21;101252.72;;;8.00;55.23
66398;BME280;54877;51.504;3.894;2023-02-24T07:24:49;101259.56;;;8.06;55.49
66398;BME280;54877;51.504;3.894;2023-02-24T07:27:15;101254.22;;;8.09;54.95
66398;BME280;54877;51.504;3.894;2023-02-24T07:29:47;101261.19;;;8.10;55.42
66398;BME280;54877;51.504;3.894;2023-02-24T07:32:14;101254.31;;;8.06;55.57
66398;BME280;54877;51.504;3.894;2023-02-24T07:34:39;101249.72;;;8.11;55.14
66398;BME280;54877;51.504;3.894;2023-02-24T07:37:05;101254.91;;;8.14;55.63
66398;BME280;54877;51.504;3.894;2023-02-24T07:39:32;101246.91;;;8.17;55.53
66398;BME280;54877;51.504;3.894;2023-02-24T07:41:58;101240.75;;;8.16;55.76
66398;BME280;54877;51.504;3.894;2023-02-24T07:44:24;101237.91;;;8.22;55.57
66398;BME280;54877;51.504;3.894;2023-02-24T07:46:49;101232.53;;;8.25;55.74
66398;BME280;54877;51.504;3.894;2023-02-24T07:49:17;101231.72;;;8.23;55.91
66398;BME280;54877;51.504;3.894;2023-02-24T07:51:45;101226.41;;;8.25;56.15
66398;BME280;54877;51.504;3.894;2023-02-24T07:54:17;101221.00;;;8.30;56.41
66398;BME280;54877;51.504;3.894;2023-02-24T07:56:46;101226.16;;;8.33;56.48
66398;BME280;54877;51.504;3.894;2023-02-24T07:59:23;101219.97;;;8.34;56.69
66398;BME280;54877;51.504;3.894;2023-02-24T08:01:54;101219.22;;;8.30;57.34
66398;BME280;54877;51.504;3.894;2023-02-24T08:04:22;101222.81;;;8.27;57.86
66398;BME280;54877;51.504;3.894;2023-02-24T08:06:50;101215.69;;;8.31;58.01
66398;BME280;54877;51.504;3.894;2023-02-24T08:09:20;101207.75;;;8.31;58.39
66398;BME280;54877;51.504;3.894;2023-02-24T08:12:09;101198.34;;;8.22;58.87
66398;BME280;54877;51.504;3.894;2023-02-24T08:14:35;101193.81;;;8.27;59.36
66398;BME280;54877;51.504;3.894;2023-02-24T08:17:08;101194.44;;;8.34;59.73
66398;BME280;54877;51.504;3.894;2023-02-24T08:19:35;101194.09;;;8.45;59.20
66398;BME280;54877;51.504;3.894;2023-02-24T08:22:07;101193.59;;;8.34;59.67
66398;BME280;54877;51.504;3.894;2023-02-24T08:24:44;101183.75;;;8.39;59.99
66398;BME280;54877;51.504;3.894;2023-02-24T08:27:30;101174.66;;;8.47;60.13
66398;BME280;54877;51.504;3.894;2023-02-24T08:29:57;101164.97;;;8.48;60.33
66398;BME280;54877;51.504;3.894;2023-02-24T08:32:34;101154.06;;;8.57;60.22
66398;BME280;54877;51.504;3.894;2023-02-24T08:35:05;101160.19;;;8.57;60.49
66398;BME280;54877;51.504;3.894;2023-02-24T08:37:49;101141.69;;;8.59;60.53
66398;BME280;54877;51.504;3.894;2023-02-24T08:43:04;101141.28;;;8.69;60.23
66398;BME280;54877;51.504;3.894;2023-02-24T08:48:43;101144.09;;;8.88;60.00
66398;BME280;54877;51.504;3.894;2023-02-24T08:51:12;101133.75;;;8.82;60.44
66398;BME280;54877;51.504;3.894;2023-02-24T08:53:41;101120.22;;;8.91;60.44
66398;BME280;54877;51.504;3.894;2023-02-24T08:56:09;101122.06;;;8.89;60.20
66398;BME280;54877;51.504;3.894;2023-02-24T08:58:40;101130.53;;;8.97;60.01
66398;BME280;54877;51.504;3.894;2023-02-24T09:01:17;101110.78;;;9.07;60.05
66398;BME280;54877;51.504;3.894;2023-02-24T09:03:48;101104.63;;;9.07;59.26
66398;BME280;54877;51.504;3.894;2023-02-24T09:06:17;101106.34;;;9.08;59.25
66398;BME280;54877;51.504;3.894;2023-02-24T09:08:49;101104.19;;;9.17;59.04
66398;BME280;54877;51.504;3.894;2023-02-24T09:11:37;101094.19;;;9.25;59.36
66398;BME280;54877;51.504;3.894;2023-02-24T09:14:07;101096.25;;;9.17;58.94
66398;BME280;54877;51.504;3.894;2023-02-24T09:16:40;101085.47;;;9.23;58.44
66398;BME280;54877;51.504;3.894;2023-02-24T09:19:26;101091.06;;;9.37;58.40
66398;BME280;54877;51.504;3.894;2023-02-24T09:22:05;101091.72;;;9.42;57.56
66398;BME280;54877;51.504;3.894;2023-02-24T09:24:55;101085.16;;;9.53;57.55
66398;BME280;54877;51.504;3.894;2023-02-24T09:27:47;101090.13;;;9.60;56.96
66398;BME280;54877;51.504;3.894;2023-02-24T09:30:24;101085.81;;;9.58;56.80
66398;BME280;54877;51.504;3.894;2023-02-24T09:33:43;101080.91;;;9.49;57.25
66398;BME280;54877;51.504;3.894;2023-02-24T09:44:52;101068.34;;;9.54;56.85
66398;BME280;54877;51.504;3.894;2023-02-24T09:47:22;101061.38;;;9.53;57.48
66398;BME280;54877;51.504;3.894;2023-02-24T09:52:44;101067.31;;;9.78;57.04
66398;BME280;54877;51.504;3.894;2023-02-24T09:58:07;101042.44;;;9.62;57.84
66398;BME280;54877;51.504;3.894;2023-02-24T10:00:49;101049.19;;;9.49;58.43
66398;BME280;54877;51.504;3.894;2023-02-24T10:03:25;101035.78;;;9.53;58.18
66398;BME280;54877;51.504;3.894;2023-02-24T10:06:54;101036.25;;;9.63;58.07
66398;BME280;54877;51.504;3.894;2023-02-24T10:11:46;101036.66;;;9.74;58.67
66398;BME280;54877;51.504;3.894;2023-02-24T10:14:22;101036.66;;;9.74;59.03
66398;BME280;54877;51.504;3.894;2023-02-24T10:16:54;101037.91;;;9.85;58.69
66398;BME280;54877;51.504;3.894;2023-02-24T10:19:39;101029.78;;;9.90;59.69
66398;BME280;54877;51.504;3.894;2023-02-24T10:22:15;101033.31;;;9.89;60.05
66398;BME280;54877;51.504;3.894;2023-02-24T10:24:53;101034.19;;;9.89;60.15
66398;BME280;54877;51.504;3.894;2023-02-24T10:27:42;101031.50;;;9.91;60.35
66398;BME280;54877;51.504;3.894;2023-02-24T10:30:22;101027.13;;;9.90;60.17
66398;BME280;54877;51.504;3.894;2023-02-24T10:32:55;101024.47;;;9.90;59.85
66398;BME280;54877;51.504;3.894;2023-02-24T10:35:23;101024.88;;;10.01;59.89
66398;BME280;54877;51.504;3.894;2023-02-24T10:37:50;101025.38;;;10.09;59.85
66398;BME280;54877;51.504;3.894;2023-02-24T10:40:17;101022.88;;;9.86;60.67
66398;BME280;54877;51.504;3.894;2023-02-24T10:43:07;101024.50;;;10.09;59.98
66398;BME280;54877;51.504;3.894;2023-02-24T10:45:42;101030.44;;;10.15;59.90
66398;BME280;54877;51.504;3.894;2023-02-24T10:48:15;101022.50;;;10.15;60.09
66398;BME280;54877;51.504;3.894;2023-02-24T10:50:49;101017.56;;;10.06;60.15
66398;BME280;54877;51.504;3.894;2023-02-24T10:53:32;101020.22;;;10.06;60.08
66398;BME280;54877;51.504;3.894;2023-02-24T10:56:02;101011.72;;;9.99;60.27
66398;BME280;54877;51.504;3.894;2023-02-24T11:02:16;101022.63;;;9.92;60.66
66398;BME280;54877;51.504;3.894;2023-02-24T11:04:54;101016.78;;;10.04;60.87
66398;BME280;54877;51.504;3.894;2023-02-24T11:07:27;101020.78;;;9.94;60.76
66398;BME280;54877;51.504;3.894;2023-02-24T11:10:15;101015.06;;;10.03;60.83
66398;BME280;54877;51.504;3.894;2023-02-24T11:12:50;101016.53;;;10.10;61.00
66398;BME280;54877;51.504;3.894;2023-02-24T11:15:49;101021.59;;;10.16;61.21
66398;BME280;54877;51.504;3.894;2023-02-24T11:18:36;100999.16;;;10.04;62.88
66398;BME280;54877;51.504;3.894;2023-02-24T11:21:03;101013.38;;;10.02;63.48
66398;BME280;54877;51.504;3.894;2023-02-24T11:33:45;100999.44;;;9.78;65.91
66398;BME280;54877;51.504;3.894;2023-02-24T11:41:35;100987.81;;;9.62;67.55
66398;BME280;54877;51.504;3.894;2023-02-24T11:44:21;100984.69;;;9.73;67.85
66398;BME280;54877;51.504;3.894;2023-02-24T11:46:55;100975.13;;;9.70;68.20
66398;BME280;54877;51.504;3.894;2023-02-24T11:49:28;100967.50;;;9.83;67.61
66398;BME280;54877;51.504;3.894;2023-02-24T11:52:00;100965.56;;;9.86;67.79
66398;BME280;54877;51.504;3.894;2023-02-24T11:54:29;100959.50;;;9.84;68.44
66398;BME280;54877;51.504;3.894;2023-02-24T11:57:02;100955.06;;;9.85;68.05
66398;BME280;54877;51.504;3.894;2023-02-24T11:59:45;100956.56;;;9.72;68.44
66398;BME280;54877;51.504;3.894;2023-02-24T12:02:21;100958.53;;;9.67;69.09
66398;BME280;54877;51.504;3.894;2023-02-24T12:05:15;100956.56;;;9.72;68.55
66398;BME280;54877;51.504;3.894;2023-02-24T12:07:55;100959.59;;;9.63;69.47
66398;BME280;54877;51.504;3.894;2023-02-24T12:10:30;100945.91;;;9.73;69.29
66398;BME280;54877;51.504;3.894;2023-02-24T12:13:01;100950.88;;;9.61;70.09
66398;BME280;54877;51.504;3.894;2023-02-24T12:15:42;100943.75;;;9.63;69.94
66398;BME280;54877;51.504;3.894;2023-02-24T12:21:12;100950.19;;;9.76;69.93
66398;BME280;54877;51.504;3.894;2023-02-24T12:23:49;100940.47;;;9.76;69.93
66398;BME280;54877;51.504;3.894;2023-02-24T12:26:20;100936.84;;;9.79;69.91
66398;BME280;54877;51.504;3.894;2023-02-24T12:34:17;100935.53;;;9.69;70.14
66398;BME280;54877;51.504;3.894;2023-02-24T12:39:24;100921.97;;;9.76;70.21
66398;BME280;54877;51.504;3.894;2023-02-24T12:58:34;100903.25;;;9.81;70.68
66398;BME280;54877;51.504;3.894;2023-02-24T13:09:20;100892.13;;;9.93;70.41
66398;BME280;54877;51.504;3.894;2023-02-24T13:12:12;100883.81;;;10.00;70.34
66398;BME280;54877;51.504;3.894;2023-02-24T13:14:44;100878.91;;;9.93;70.55
66398;BME280;54877;51.504;3.894;2023-02-24T13:19:37;100882.81;;;10.03;70.37
66398;BME280;54877;51.504;3.894;2023-02-24T13:24:35;100876.25;;;9.93;70.77
66398;BME280;54877;51.504;3.894;2023-02-24T13:29:43;100872.72;;;10.13;70.63
66398;BME280;54877;51.504;3.894;2023-02-24T13:34:53;100869.03;;;10.34;69.72
66398;BME280;54877;51.504;3.894;2023-02-24T13:37:27;100863.19;;;10.27;70.31
66398;BME280;54877;51.504;3.894;2023-02-24T13:42:41;100864.94;;;10.45;69.71
66398;BME280;54877;51.504;3.894;2023-02-24T13:50:26;100850.53;;;10.51;70.05
66398;BME280;54877;51.504;3.894;2023-02-24T14:01:43;100847.59;;;10.57;69.04
66398;BME280;54877;51.504;3.894;2023-02-24T14:04:16;100836.22;;;10.55;68.98
66398;BME280;54877;51.504;3.894;2023-02-24T14:06:49;100836.00;;;10.59;68.95
66398;BME280;54877;51.504;3.894;2023-02-24T14:09:20;100833.06;;;10.66;68.94
66398;BME280;54877;51.504;3.894;2023-02-24T14:11:50;100835.38;;;10.54;68.52
66398;BME280;54877;51.504;3.894;2023-02-24T14:14:22;100837.00;;;10.57;68.35
66398;BME280;54877;51.504;3.894;2023-02-24T14:16:48;100834.13;;;10.61;67.71
66398;BME280;54877;51.504;3.894;2023-02-24T14:19:15;100826.19;;;10.79;67.73
66398;BME280;54877;51.504;3.894;2023-02-24T14:24:35;100831.03;;;10.88;67.22
66398;BME280;54877;51.504;3.894;2023-02-24T14:27:01;100826.19;;;10.96;66.43
66398;BME280;54877;51.504;3.894;2023-02-24T14:29:27;100829.31;;;11.04;66.27
66398;BME280;54877;51.504;3.894;2023-02-24T14:31:56;100816.41;;;11.13;65.31
66398;BME280;54877;51.504;3.894;2023-02-24T14:34:24;100825.31;;;11.12;64.52
66398;BME280;54877;51.504;3.894;2023-02-24T14:36:55;100817.50;;;11.27;64.35
66398;BME280;54877;51.504;3.894;2023-02-24T14:39:31;100816.09;;;11.19;63.92
66398;BME280;54877;51.504;3.894;2023-02-24T14:44:32;100830.53;;;11.14;63.31
66398;BME280;54877;51.504;3.894;2023-02-24T14:47:07;100837.25;;;11.21;63.14
66398;BME280;54877;51.504;3.894;2023-02-24T14:49:35;100833.56;;;11.24;63.22
66398;BME280;54877;51.504;3.894;2023-02-24T14:54:47;100829.88;;;10.93;63.58
66398;BME280;54877;51.504;3.894;2023-02-24T14:57:17;100827.88;;;10.97;63.51
66398;BME280;54877;51.504;3.894;2023-02-24T14:59:51;100831.88;;;10.88;63.15
66398;BME280;54877;51.504;3.894;2023-02-24T15:02:22;100825.75;;;10.88;63.57
66398;BME280;54877;51.504;3.894;2023-02-24T15:04:55;100828.22;;;10.74;64.02
66398;BME280;54877;51.504;3.894;2023-02-24T15:07:22;100837.41;;;10.84;63.79
66398;BME280;54877;51.504;3.894;2023-02-24T15:09:52;100832.66;;;10.73;63.04
66398;BME280;54877;51.504;3.894;2023-02-24T15:12:20;100829.38;;;10.68;63.03
66398;BME280;54877;51.504;3.894;2023-02-24T15:14:54;100832.81;;;10.70;62.57
66398;BME280;54877;51.504;3.894;2023-02-24T15:17:24;100830.41;;;10.66;61.78
66398;BME280;54877;51.504;3.894;2023-02-24T15:19:51;100822.94;;;10.74;60.99
66398;BME280;54877;51.504;3.894;2023-02-24T15:22:24;100828.38;;;10.71;61.34
66398;BME280;54877;51.504;3.894;2023-02-24T15:25:08;100825.94;;;10.66;60.98
66398;BME280;54877;51.504;3.894;2023-02-24T15:33:05;100815.28;;;10.68;61.25
66398;BME280;54877;51.504;3.894;2023-02-24T15:35:45;100810.47;;;10.76;61.33
66398;BME280;54877;51.504;3.894;2023-02-24T15:38:18;100810.47;;;10.76;61.81
66398;BME280;54877;51.504;3.894;2023-02-24T15:40:52;100816.16;;;10.85;61.58
66398;BME280;54877;51.504;3.894;2023-02-24T15:48:46;100815.19;;;10.69;61.74
66398;BME280;54877;51.504;3.894;2023-02-24T15:54:05;100819.56;;;10.53;62.44
66398;BME280;54877;51.504;3.894;2023-02-24T15:56:36;100819.84;;;10.47;62.52
66398;BME280;54877;51.504;3.894;2023-02-24T15:59:01;100822.72;;;10.42;61.99
66398;BME280;54877;51.504;3.894;2023-02-24T16:01:28;100829.75;;;10.43;62.01